KFOD

Fort Dodge Regional Airport

Fort Dodge, Iowa, USA
METAR KFOD 211432Z AUTO 13005KT 2 1/2SM BR OVC003 14/13 A3005 RMK AO2
Observed Flight Rules
May-21 @ 14:32 UTC (15 minutes ago) Instrument Flight Rules
Wind Visibility Clouds Conditions
130° at 5 knots 2 1/2 miles
  • Overcast at 300' AGL
  • Mist
Temperatures Readings
Current 14°C / 57°F
Dewpoint 13°C / 55°F
Humidity 94%
Altimeter 30.05" Hg
Pressure 1018 hPa
Elevation 355
METAR KFOD 211432Z AUTO 13005KT 2 1/2SM BR OVC003 14/13 A3005 RMK AO2
Observed Flight Rules
May-21 @ 14:32 UTC
(15 minutes ago)
LIFR
Wind Visibility
130° at 5 knots 2 1/2 miles
Clouds
  • Overcast at 300' AGL
Conditions
  • Mist
Temperature Dewpoint
14°C / 57°F 13°C / 55°F
Humidity Altimeter Pressure
94% 30.05" Hg 1018 hPa